Time;durP1;ratioP1;P1;durP2;ratioP2;P2;SDS_P1;SDS_P2;PMS_P1;PMS_P2;Temp;Humidity;BMP_temperature;BMP_pressure;BME280_temperature;BME280_humidity;BME280_pressure;Samples;Min_cycle;Max_cycle;Signal;HPM_P1;HPM_P2
2022/10/29 00:04:19;;;;;;;;;;;14.30;99.90;;;13.27;100.00;96453.63;10536938;28;1110;-73
2022/10/29 00:09:22;;;;;;;;;;;14.20;99.90;;;13.31;100.00;96457.41;10538193;28;2047;-74
2022/10/29 00:14:25;;;;;;;;;;;14.30;99.90;;;13.19;100.00;96462.25;10536733;28;1660;-72
2022/10/29 00:19:28;;;;;;;;;;;14.20;99.90;;;13.24;100.00;96462.28;10529221;28;1138;-73
2022/10/29 00:24:30;;;;;;;;;;;14.20;99.90;;;13.41;100.00;96448.44;10534220;28;1668;-72
2022/10/29 00:29:33;;;;;;;;;;;14.30;99.90;;;13.60;100.00;96443.25;10527866;28;1985;-73
2022/10/29 00:34:36;;;;;;;;;;;14.30;99.90;;;13.71;100.00;96445.63;10535594;28;1173;-73
2022/10/29 00:39:39;;;;;;;;;;;14.40;99.90;;;13.83;100.00;96448.03;10533938;28;1655;-73
2022/10/29 00:44:41;;;;;;;;;;;14.60;99.90;;;13.66;100.00;96448.34;10534579;28;1752;-72
2022/10/29 00:49:44;;;;;;;;;;;14.70;99.90;;;13.44;100.00;96446.03;10534456;28;1975;-73
2022/10/29 00:54:47;;;;;;;;;;;14.50;99.90;;;13.26;100.00;96449.31;10536363;28;1832;-73
2022/10/29 00:59:50;;;;;;;;;;;14.40;99.90;;;13.13;100.00;96453.34;10540306;28;1462;-73
2022/10/29 01:04:52;;;;;;;;;;;14.10;99.90;;;13.07;100.00;96453.63;10541058;28;1914;-74
2022/10/29 01:09:55;;;;;;;;;;;14.00;99.90;;;12.98;100.00;96459.59;10547949;28;1894;-72
2022/10/29 01:14:57;;;;;;;;;;;14.00;99.90;;;12.85;100.00;96465.53;10535359;28;1561;-72
2022/10/29 01:20:00;;;;;;;;;;;13.90;99.90;;;12.99;100.00;96466.59;10543958;28;1198;-72
2022/10/29 01:25:03;;;;;;;;;;;13.90;99.90;;;13.01;100.00;96479.00;10537558;28;1997;-73
2022/10/29 01:30:05;;;;;;;;;;;13.90;99.90;;;12.94;100.00;96479.28;10537980;28;1331;-72
2022/10/29 01:35:18;;;;;;;;;;;14.00;99.90;;;12.81;100.00;96471.75;10543515;28;1153;-73
2022/10/29 01:40:21;;;;;;;;;;;13.90;99.90;;;12.70;100.00;96470.94;10531782;28;1730;-73
2022/10/29 01:45:23;;;;;;;;;;;13.70;99.90;;;12.58;100.00;96465.00;10541623;28;1882;-73
2022/10/29 01:50:26;;;;;;;;;;;13.60;99.90;;;12.51;100.00;96461.75;10537792;28;1156;-72
2022/10/29 01:55:29;;;;;;;;;;;13.50;99.90;;;12.45;100.00;96461.75;10537841;28;1712;-72
2022/10/29 02:00:31;;;;;;;;;;;13.40;99.90;;;12.27;100.00;96464.94;10537517;28;1619;-73
2022/10/29 02:05:34;;;;;;;;;;;13.30;99.90;;;12.20;100.00;96459.00;10537447;28;1983;-72
2022/10/29 02:10:37;;;;;;;;;;;13.20;99.90;;;12.17;100.00;96459.56;10538308;28;1129;-73
2022/10/29 02:15:39;;;;;;;;;;;13.20;99.90;;;12.16;100.00;96456.06;10535138;28;1620;-73
2022/10/29 02:20:42;;;;;;;;;;;13.00;99.90;;;12.22;100.00;96456.88;10538988;28;1000;-77
2022/10/29 02:25:44;;;;;;;;;;;13.20;99.90;;;12.25;100.00;96460.91;10533919;28;1972;-72
2022/10/29 02:30:47;;;;;;;;;;;13.10;99.90;;;12.21;100.00;96462.50;10539668;28;1505;-74
2022/10/29 02:35:50;;;;;;;;;;;13.20;99.90;;;12.15;100.00;96456.31;10536902;28;1141;-73
2022/10/29 02:40:52;;;;;;;;;;;13.10;99.90;;;12.13;100.00;96453.88;10527547;28;1656;-72
2022/10/29 02:45:57;;;;;;;;;;;13.10;99.90;;;12.23;100.00;96453.09;10532515;28;1905;-72
2022/10/29 02:51:00;;;;;;;;;;;13.00;99.90;;;12.26;100.00;96447.16;10534152;28;1178;-72
2022/10/29 02:56:03;;;;;;;;;;;13.10;99.90;;;12.18;100.00;96435.03;10532230;28;1652;-74
2022/10/29 03:01:05;;;;;;;;;;;13.00;99.90;;;12.16;100.00;96436.38;10569965;27;2031;-76
2022/10/29 03:06:08;;;;;;;;;;;13.00;99.90;;;12.21;100.00;96432.88;10537858;28;1905;-74
2022/10/29 03:11:12;;;;;;;;;;;13.10;99.90;;;12.17;100.00;96444.19;10528765;28;1648;-73
2022/10/29 03:16:23;;;;;;;;;;;13.00;99.90;;;12.23;100.00;96436.94;10531875;28;1667;-73
2022/10/29 03:21:25;;;;;;;;;;;13.10;99.90;;;12.35;100.00;96426.69;10535039;28;1098;-73
2022/10/29 03:26:28;;;;;;;;;;;13.10;99.90;;;12.46;100.00;96427.50;10532969;28;1905;-73
2022/10/29 03:31:36;;;;;;;;;;;13.30;99.90;;;12.49;100.00;96435.06;10534703;28;915;-73
2022/10/29 03:36:39;;;;;;;;;;;13.30;99.90;;;12.52;100.00;96433.69;10534749;28;1490;-72
2022/10/29 03:41:41;;;;;;;;;;;13.30;99.90;;;12.52;100.00;96433.69;10536320;28;1205;-78
2022/10/29 03:46:44;;;;;;;;;;;13.30;99.90;;;12.51;100.00;96429.38;10526306;28;1977;-73
2022/10/29 03:51:47;;;;;;;;;;;13.30;99.90;;;12.61;100.00;96435.59;10534740;28;927;-72
2022/10/29 03:56:49;;;;;;;;;;;13.40;99.90;;;12.60;100.00;96425.09;10533365;28;1648;-74
2022/10/29 04:01:52;;;;;;;;;;;13.40;99.90;;;12.63;100.00;96430.75;10534712;28;1133;-72
2022/10/29 04:06:55;;;;;;;;;;;13.40;99.90;;;12.74;100.00;96420.75;10533932;28;1910;-72
2022/10/29 04:11:57;;;;;;;;;;;13.50;99.90;;;12.91;100.00;96423.97;10536156;28;1148;-73
2022/10/29 04:17:00;;;;;;;;;;;13.60;99.90;;;13.11;100.00;96430.44;10533431;28;1624;-73
2022/10/29 04:22:03;;;;;;;;;;;13.70;99.90;;;13.17;100.00;96437.44;10532704;28;1628;-72
2022/10/29 04:27:25;;;;;;;;;;;13.90;99.90;;;13.26;100.00;96419.59;10524484;28;1906;-74
2022/10/29 04:32:48;;;;;;;;;;;13.90;99.90;;;13.28;100.00;96428.22;10541841;28;1102;-72
2022/10/29 04:37:55;;;;;;;;;;;14.00;99.90;;;13.42;100.00;96423.91;10540463;28;1612;-71
2022/10/29 04:42:57;;;;;;;;;;;14.10;99.90;;;13.44;100.00;96410.91;10542410;28;1192;-73
2022/10/29 04:48:00;;;;;;;;;;;14.20;99.90;;;13.48;100.00;96411.94;10539186;28;1918;-75
2022/10/29 04:53:03;;;;;;;;;;;14.20;99.90;;;13.45;100.00;96409.81;10545208;28;1873;-72
2022/10/29 04:58:05;;;;;;;;;;;14.30;99.90;;;13.59;100.00;96401.13;10538297;28;1664;-72
2022/10/29 05:03:08;;;;;;;;;;;14.30;99.90;;;13.59;100.00;96403.81;10540677;28;1187;-73
2022/10/29 05:08:11;;;;;;;;;;;14.30;99.90;;;13.58;100.00;96397.63;10534194;28;1973;-73
2022/10/29 05:13:13;;;;;;;;;;;14.40;99.90;;;13.55;100.00;96402.75;10540000;28;1145;-73
2022/10/29 05:18:16;;;;;;;;;;;14.30;99.90;;;13.48;100.00;96406.56;10537197;28;1667;-72
2022/10/29 05:23:25;;;;;;;;;;;14.40;99.90;;;13.38;100.00;96411.22;10498891;28;927;-72
2022/10/29 05:28:28;;;;;;;;;;;14.30;99.90;;;13.39;100.00;96416.31;10526741;28;1987;-73
2022/10/29 05:33:30;;;;;;;;;;;14.30;99.90;;;13.45;100.00;96412.53;10539665;28;1132;-73
2022/10/29 05:38:33;;;;;;;;;;;14.20;99.90;;;13.53;100.00;96401.13;10531608;28;1695;-73
2022/10/29 05:43:41;;;;;;;;;;;14.30;99.90;;;13.56;100.00;96397.09;10540932;28;864;-72
2022/10/29 05:48:44;;;;;;;;;;;14.30;99.90;;;13.66;100.00;96409.72;10537927;28;1906;-72
2022/10/29 05:53:46;;;;;;;;;;;14.40;99.90;;;13.58;100.00;96402.22;10538554;28;1624;-72
2022/10/29 05:58:49;;;;;;;;;;;14.40;99.90;;;13.48;100.00;96414.66;10538107;28;1509;-72
2022/10/29 06:03:52;;;;;;;;;;;14.40;99.90;;;13.50;100.00;96414.41;10537933;28;1156;-73
2022/10/29 06:08:55;;;;;;;;;;;14.30;99.90;;;13.70;100.00;96427.00;10537369;28;1910;-74
2022/10/29 06:13:58;;;;;;;;;;;14.30;99.90;;;13.74;100.00;96423.50;10531960;28;1691;-72
2022/10/29 06:19:00;;;;;;;;;;;14.40;99.90;;;13.81;100.00;96428.59;10536538;28;1203;-73
2022/10/29 06:24:03;;;;;;;;;;;14.60;99.90;;;13.70;100.00;96418.91;10534368;28;1710;-73
2022/10/29 06:29:05;;;;;;;;;;;14.60;99.90;;;13.85;100.00;96424.22;10530243;28;1906;-73
2022/10/29 06:34:08;;;;;;;;;;;14.50;99.90;;;13.82;100.00;96424.78;10536671;28;1195;-73
2022/10/29 06:39:11;;;;;;;;;;;14.60;99.90;;;13.90;100.00;96443.13;10535865;28;1659;-74
2022/10/29 06:44:13;;;;;;;;;;;14.60;99.90;;;14.02;100.00;96446.31;10536321;28;916;-76
2022/10/29 06:49:16;;;;;;;;;;;14.70;99.90;;;14.20;100.00;96441.34;10531719;28;1910;-74
2022/10/29 06:54:18;;;;;;;;;;;14.80;99.90;;;14.42;100.00;96444.41;10534792;28;1786;-76
2022/10/29 06:59:22;;;;;;;;;;;14.90;99.90;;;14.72;100.00;96450.72;10535270;28;1505;-71
2022/10/29 07:04:25;;;;;;;;;;;15.10;99.90;;;15.02;100.00;96439.63;10536082;28;1227;-73
2022/10/29 07:09:27;;;;;;;;;;;15.40;99.90;;;15.38;100.00;96429.22;10531697;28;1913;-72
2022/10/29 07:14:30;;;;;;;;;;;15.70;99.90;;;15.79;100.00;96444.25;10530849;28;1640;-72
2022/10/29 07:19:33;;;;;;;;;;;16.00;99.90;;;16.15;98.90;96441.84;10536350;28;1189;-72
2022/10/29 07:24:35;;;;;;;;;;;16.30;99.90;;;16.37;95.38;96446.72;10528981;28;1624;-75
2022/10/29 07:29:38;;;;;;;;;;;16.70;99.90;;;16.54;93.21;96447.00;10526618;28;1902;-73
2022/10/29 07:34:40;;;;;;;;;;;16.90;99.90;;;16.83;91.19;96451.44;10535229;28;1209;-73
2022/10/29 07:39:43;;;;;;;;;;;17.10;99.90;;;17.10;87.70;96458.88;10531261;28;1734;-72
2022/10/29 07:44:46;;;;;;;;;;;17.40;99.90;;;17.20;87.63;96453.25;10531679;28;1651;-73
2022/10/29 07:49:49;;;;;;;;;;;17.60;99.90;;;17.37;86.92;96452.66;10530783;28;1977;-74
2022/10/29 07:54:52;;;;;;;;;;;17.80;99.90;;;17.43;83.79;96446.88;10531152;28;1833;-77
2022/10/29 07:59:54;;;;;;;;;;;17.90;99.90;;;17.50;84.73;96447.28;10536720;28;1481;-76
2022/10/29 08:04:57;;;;;;;;;;;18.00;99.90;;;17.60;82.26;96443.53;10543052;28;1332;-73
2022/10/29 08:10:00;;;;;;;;;;;18.10;99.90;;;17.54;83.55;96445.53;10541267;28;1913;-75
2022/10/29 08:15:04;;;;;;;;;;;18.20;99.90;;;17.84;80.67;96448.81;10537056;28;1656;-73
2022/10/29 08:20:07;;;;;;;;;;;18.20;99.90;;;18.04;80.19;96442.13;10543369;28;1094;-74
2022/10/29 08:25:10;;;;;;;;;;;18.40;99.90;;;18.14;78.46;96444.63;10541130;28;1644;-73
2022/10/29 08:30:13;;;;;;;;;;;18.60;99.90;;;18.43;75.94;96443.44;10535364;28;1969;-72
2022/10/29 08:35:16;;;;;;;;;;;18.80;99.90;;;18.63;74.76;96432.06;10542382;28;1141;-73
2022/10/29 08:40:19;;;;;;;;;;;19.00;99.90;;;18.73;74.05;96437.31;10540512;28;1612;-72
2022/10/29 08:45:21;;;;;;;;;;;19.10;99.90;;;18.82;71.38;96427.28;10539326;28;1608;-73
2022/10/29 08:50:24;;;;;;;;;;;19.30;99.90;;;19.00;70.58;96422.75;10541540;28;1972;-74
2022/10/29 08:55:27;;;;;;;;;;;19.40;99.90;;;19.26;66.64;96420.16;10531007;28;1667;-72
2022/10/29 09:00:30;;;;;;;;;;;19.50;99.90;;;19.17;69.60;96428.31;10544958;28;1636;-73
2022/10/29 09:05:32;;;;;;;;;;;19.70;99.90;;;19.25;66.91;96437.63;10541894;28;1653;-73
2022/10/29 09:10:37;;;;;;;;;;;19.80;99.90;;;19.30;65.90;96440.22;10540963;28;1983;-74
2022/10/29 09:15:39;;;;;;;;;;;19.80;99.90;;;19.39;65.44;96443.78;10538153;28;1774;-72
2022/10/29 09:20:42;;;;;;;;;;;19.90;99.90;;;19.62;63.01;96435.59;10540521;28;1180;-73
2022/10/29 09:25:45;;;;;;;;;;;20.00;99.90;;;19.63;63.33;96431.75;10533568;28;1667;-73
2022/10/29 09:30:47;;;;;;;;;;;20.10;99.90;;;19.79;63.29;96437.59;10533545;28;1910;-73
2022/10/29 09:35:50;;;;;;;;;;;20.30;99.90;;;19.53;64.79;96435.53;10539362;28;1481;-78
2022/10/29 09:40:53;;;;;;;;;;;20.30;99.90;;;19.39;65.44;96437.53;10542066;28;1114;-72
2022/10/29 09:45:55;;;;;;;;;;;20.20;99.90;;;19.34;65.33;96443.13;10533871;28;1687;-73
2022/10/29 09:50:58;;;;;;;;;;;20.00;99.90;;;19.50;65.17;96438.06;10536375;28;1914;-73
2022/10/29 09:56:01;;;;;;;;;;;20.10;99.90;;;19.60;64.59;96425.00;10537970;28;1153;-74
2022/10/29 10:01:04;;;;;;;;;;;20.10;99.90;;;19.68;64.10;96417.97;10537866;28;1833;-72
2022/10/29 10:06:06;;;;;;;;;;;20.20;99.90;;;19.82;62.21;96426.03;10543871;28;1624;-72
2022/10/29 10:11:13;;;;;;;;;;;20.30;99.90;;;20.08;59.82;96402.31;10539165;28;1914;-74
2022/10/29 10:16:15;;;;;;;;;;;20.50;99.90;;;20.35;59.61;96405.88;10533307;28;1687;-75
2022/10/29 10:21:18;;;;;;;;;;;20.70;99.90;;;20.71;57.10;96402.84;10538602;28;1141;-72
2022/10/29 10:26:21;;;;;;;;;;;21.00;99.90;;;21.20;56.34;96389.72;10528448;28;1624;-73
2022/10/29 10:31:23;;;;;;;;;;;21.30;99.90;;;21.46;55.15;96382.25;10532172;28;1907;-73
2022/10/29 10:36:26;;;;;;;;;;;21.70;99.90;;;21.78;54.22;96388.22;10533313;28;1501;-72
2022/10/29 10:41:29;;;;;;;;;;;22.00;99.90;;;21.76;53.02;96379.53;10535899;28;1216;-73
2022/10/29 10:46:31;;;;;;;;;;;22.20;99.90;;;21.88;53.10;96376.88;10536251;28;1727;-72
2022/10/29 10:51:34;;;;;;;;;;;22.30;99.90;;;21.91;50.90;96361.75;10537409;28;1989;-73
2022/10/29 10:56:37;;;;;;;;;;;22.30;99.90;;;22.01;51.24;96358.59;10530321;28;1562;-72
2022/10/29 11:01:39;;;;;;;;;;;22.40;99.90;;;22.11;50.58;96359.03;10536245;28;1113;-73
2022/10/29 11:06:42;;;;;;;;;;;22.50;99.90;;;22.31;50.00;96351.16;10533805;28;1648;-72
2022/10/29 11:11:44;;;;;;;;;;;22.60;99.90;;;22.23;50.39;96349.28;10535727;28;1991;-75
2022/10/29 11:16:47;;;;;;;;;;;22.70;99.90;;;22.27;50.30;96339.28;10535457;28;1607;-77
2022/10/29 11:21:50;;;;;;;;;;;22.60;99.90;;;22.39;50.68;96339.31;10535154;28;1608;-72
2022/10/29 11:26:53;;;;;;;;;;;22.90;99.90;;;22.62;50.11;96324.13;10532443;28;1481;-73
2022/10/29 11:31:55;;;;;;;;;;;23.00;99.90;;;22.57;51.36;96320.78;10532550;28;1894;-72
2022/10/29 11:36:58;;;;;;;;;;;23.00;99.90;;;22.64;50.37;96313.63;10502297;28;1699;-73
2022/10/29 11:42:01;;;;;;;;;;;23.00;99.90;;;22.73;50.54;96308.06;10534906;28;1201;-74
2022/10/29 11:47:04;;;;;;;;;;;23.20;99.90;;;22.77;50.03;96314.44;10530635;28;1679;-75
2022/10/29 11:52:07;;;;;;;;;;;23.10;99.90;;;22.93;49.39;96301.72;10536176;28;1914;-75
2022/10/29 11:57:10;;;;;;;;;;;23.20;99.90;;;22.98;49.24;96299.94;10522060;28;1644;-72
2022/10/29 12:02:13;;;;;;;;;;;23.40;99.90;;;23.09;48.72;96288.16;10534638;28;1158;-75
2022/10/29 12:07:15;;;;;;;;;;;23.50;99.90;;;23.03;48.75;96288.72;10534490;28;1671;-75
2022/10/29 12:12:18;;;;;;;;;;;23.50;99.90;;;22.98;48.60;96280.72;10535013;28;1898;-74
2022/10/29 12:17:21;;;;;;;;;;;23.50;99.90;;;23.17;48.60;96270.81;10534245;28;1679;-72
2022/10/29 12:22:23;;;;;;;;;;;23.60;99.90;;;23.20;49.00;96266.56;10534813;28;1045;-72
2022/10/29 12:27:26;;;;;;;;;;;23.60;99.90;;;23.20;49.34;96270.09;10522891;28;1680;-73
2022/10/29 12:32:29;;;;;;;;;;;23.70;99.90;;;23.45;48.33;96265.41;10533866;28;1906;-72
2022/10/29 12:37:31;;;;;;;;;;;23.80;99.90;;;23.33;48.77;96256.41;10528408;28;1632;-72
2022/10/29 12:42:34;;;;;;;;;;;23.80;99.90;;;23.58;47.34;96249.72;10533681;28;1703;-72
2022/10/29 12:47:36;;;;;;;;;;;23.90;99.90;;;23.51;47.02;96249.53;10531469;28;1704;-73
2022/10/29 12:52:40;;;;;;;;;;;24.00;99.90;;;23.46;48.45;96247.00;10536903;28;1973;-72
2022/10/29 12:57:42;;;;;;;;;;;24.00;99.90;;;23.34;49.73;96236.03;10541374;28;1518;-73
2022/10/29 13:02:45;;;;;;;;;;;23.90;99.90;;;23.40;51.55;96238.22;10543065;28;1160;-72
2022/10/29 13:07:48;;;;;;;;;;;23.90;99.90;;;23.29;54.31;96231.59;10535966;28;1672;-73
2022/10/29 13:12:51;;;;;;;;;;;23.90;99.90;;;23.24;56.34;96234.56;10537650;28;1906;-72
2022/10/29 13:17:54;;;;;;;;;;;23.80;99.90;;;23.33;58.10;96226.22;10539954;28;1703;-72
2022/10/29 13:22:59;;;;;;;;;;;23.90;99.90;;;23.20;60.55;96234.44;10537847;28;1860;-75
2022/10/29 13:28:03;;;;;;;;;;;23.80;99.90;;;23.28;62.96;96227.25;10537047;28;1513;-74
2022/10/29 13:33:06;;;;;;;;;;;23.70;99.90;;;23.31;65.51;96228.53;10542189;28;1909;-72
2022/10/29 13:38:09;;;;;;;;;;;23.80;99.90;;;23.32;67.06;96216.41;10539746;28;1690;-76
2022/10/29 13:43:12;;;;;;;;;;;23.90;99.90;;;23.23;68.03;96221.22;10540010;28;885;-73
2022/10/29 13:48:14;;;;;;;;;;;23.80;99.90;;;23.06;70.21;96220.28;10532284;28;1925;-73
2022/10/29 13:53:17;;;;;;;;;;;23.80;99.90;;;23.06;71.52;96214.81;10539881;28;809;-72
2022/10/29 13:58:20;;;;;;;;;;;23.70;99.90;;;23.02;72.18;96219.38;10531963;28;1807;-74
2022/10/29 14:03:22;;;;;;;;;;;23.60;99.90;;;23.00;72.55;96218.91;10541660;28;1154;-73
2022/10/29 14:08:25;;;;;;;;;;;23.60;99.90;;;22.83;73.88;96213.63;10532669;28;1901;-74
2022/10/29 14:13:28;;;;;;;;;;;23.60;99.90;;;22.79;73.93;96213.53;10539638;28;1148;-73
2022/10/29 14:18:30;;;;;;;;;;;23.40;99.90;;;22.75;73.45;96214.53;10542135;28;1656;-73
2022/10/29 14:23:33;;;;;;;;;;;23.40;99.90;;;22.74;72.95;96210.19;10540051;28;1047;-73
2022/10/29 14:28:36;;;;;;;;;;;23.40;99.90;;;22.69;75.69;96213.16;10531431;28;1922;-72
2022/10/29 14:33:38;;;;;;;;;;;23.40;99.90;;;22.52;83.28;96216.88;10540627;28;1135;-72
2022/10/29 14:38:41;;;;;;;;;;;23.30;99.90;;;22.45;82.80;96214.72;10530133;28;1597;-72
2022/10/29 14:43:44;;;;;;;;;;;23.20;99.90;;;22.30;81.84;96218.91;10540277;28;1187;-74
2022/10/29 14:48:47;;;;;;;;;;;23.00;99.90;;;22.21;83.01;96220.13;10530341;28;1910;-74
2022/10/29 14:53:50;;;;;;;;;;;23.00;99.90;;;22.01;79.37;96216.25;10536048;28;1651;-77
2022/10/29 14:58:53;;;;;;;;;;;22.80;99.90;;;21.93;79.93;96215.19;10530562;28;1446;-75
2022/10/29 15:03:55;;;;;;;;;;;22.60;99.90;;;21.70;79.23;96211.22;10536390;28;1138;-73
2022/10/29 15:08:58;;;;;;;;;;;22.50;99.90;;;21.58;78.31;96211.97;10533729;28;1980;-74
2022/10/29 15:14:01;;;;;;;;;;;22.40;99.90;;;21.43;80.97;96207.06;10532924;28;1672;-74
2022/10/29 15:19:04;;;;;;;;;;;22.30;99.90;;;21.31;85.88;96213.25;10536031;28;1054;-73
2022/10/29 15:24:06;;;;;;;;;;;22.10;99.90;;;21.07;90.96;96215.81;10531274;28;1601;-75
2022/10/29 15:29:09;;;;;;;;;;;21.90;99.90;;;20.90;93.78;96212.00;10529790;28;1882;-73
2022/10/29 15:34:12;;;;;;;;;;;21.80;99.90;;;20.74;97.00;96205.47;10537376;28;1160;-72
2022/10/29 15:39:14;;;;;;;;;;;21.60;99.90;;;20.45;100.00;96206.25;10530704;28;1624;-73
2022/10/29 15:44:17;;;;;;;;;;;21.50;99.90;;;20.27;100.00;96205.47;10534322;28;1608;-71
2022/10/29 15:49:20;;;;;;;;;;;21.20;99.90;;;20.10;100.00;96205.50;10526593;28;1980;-72
2022/10/29 15:54:23;;;;;;;;;;;21.00;99.90;;;19.92;100.00;96202.81;10532069;28;1752;-72
2022/10/29 15:59:28;;;;;;;;;;;20.80;99.90;;;19.91;100.00;96200.38;10534296;28;1612;-73
2022/10/29 16:04:30;;;;;;;;;;;20.70;99.90;;;19.85;100.00;96204.41;10535119;28;1208;-73
2022/10/29 16:09:33;;;;;;;;;;;20.60;99.90;;;19.59;100.00;96207.13;10535077;28;1918;-74
2022/10/29 16:14:43;;;;;;;;;;;20.50;99.90;;;19.32;100.00;96211.75;10531890;28;1620;-73
2022/10/29 16:19:45;;;;;;;;;;;20.30;99.90;;;19.29;100.00;96204.22;10535929;28;1137;-73
2022/10/29 16:24:48;;;;;;;;;;;20.10;99.90;;;19.01;100.00;96216.47;10540429;28;1715;-72
2022/10/29 16:29:51;;;;;;;;;;;20.00;99.90;;;18.85;100.00;96211.47;10536146;28;1906;-73
2022/10/29 16:34:54;;;;;;;;;;;19.80;99.90;;;18.72;100.00;96211.59;10536529;28;1426;-74
2022/10/29 16:39:57;;;;;;;;;;;19.60;99.90;;;18.68;100.00;96205.97;10539436;28;1934;-72
2022/10/29 16:44:59;;;;;;;;;;;19.50;99.90;;;18.52;100.00;96204.75;10541035;28;1651;-73
2022/10/29 16:50:02;;;;;;;;;;;19.40;99.90;;;18.32;100.00;96204.19;10541676;28;1964;-72
2022/10/29 16:55:05;;;;;;;;;;;19.30;99.90;;;18.22;100.00;96207.16;10534287;28;1699;-71
2022/10/29 17:00:07;;;;;;;;;;;19.20;99.90;;;17.99;100.00;96216.47;10535205;28;1672;-75
2022/10/29 17:05:10;;;;;;;;;;;19.10;99.90;;;17.67;100.00;96210.13;10541089;28;959;-73
2022/10/29 17:10:13;;;;;;;;;;;18.80;99.90;;;17.51;100.00;96211.59;10533991;28;1910;-73
2022/10/29 17:15:15;;;;;;;;;;;18.50;99.90;;;17.21;100.00;96213.09;10541152;28;1145;-73
2022/10/29 17:20:18;;;;;;;;;;;18.30;99.90;;;17.25;100.00;96214.88;10532180;28;1762;-74
2022/10/29 17:25:20;;;;;;;;;;;18.20;99.90;;;17.19;100.00;96207.97;10538689;28;1706;-73
2022/10/29 17:30:23;;;;;;;;;;;18.10;99.90;;;16.98;100.00;96217.63;10533634;28;1969;-73
2022/10/29 17:35:32;;;;;;;;;;;18.00;99.90;;;17.01;100.00;96214.31;10535049;28;1474;-73
2022/10/29 17:40:34;;;;;;;;;;;17.80;99.90;;;16.93;100.00;96224.00;10540845;28;1113;-73
2022/10/29 17:45:37;;;;;;;;;;;17.80;99.90;;;16.96;100.00;96222.56;10537871;28;1671;-73
2022/10/29 17:50:40;;;;;;;;;;;17.80;99.90;;;16.78;100.00;96231.63;10539971;28;1918;-73
2022/10/29 17:55:42;;;;;;;;;;;17.70;99.90;;;16.62;100.00;96223.75;10537989;28;1735;-73
2022/10/29 18:00:47;;;;;;;;;;;17.60;99.90;;;16.63;100.00;96230.78;10533039;28;1729;-74
2022/10/29 18:05:50;;;;;;;;;;;17.60;99.90;;;16.62;100.00;96228.38;10537666;28;1668;-74
2022/10/29 18:10:56;;;;;;;;;;;17.40;99.90;;;16.45;100.00;96223.53;10567720;27;1994;-72
2022/10/29 18:15:59;;;;;;;;;;;17.40;99.90;;;16.34;100.00;96219.41;10532085;28;1624;-73
2022/10/29 18:21:01;;;;;;;;;;;17.30;99.90;;;16.41;100.00;96225.22;10538534;28;1089;-74
2022/10/29 18:26:04;;;;;;;;;;;17.20;99.90;;;16.13;100.00;96233.31;10531684;28;1664;-72
2022/10/29 18:31:06;;;;;;;;;;;17.10;99.90;;;16.19;100.00;96232.13;10533895;28;1979;-74
2022/10/29 18:36:10;;;;;;;;;;;17.10;99.90;;;16.20;100.00;96217.47;10537898;28;1482;-77
2022/10/29 18:41:12;;;;;;;;;;;17.00;99.90;;;16.18;100.00;96224.31;10539090;28;1153;-72
2022/10/29 18:46:17;;;;;;;;;;;17.00;99.90;;;16.14;100.00;96213.22;10530853;28;1648;-74
2022/10/29 18:51:22;;;;;;;;;;;17.00;99.90;;;16.13;100.00;96210.81;10521837;28;1909;-74
2022/10/29 18:56:26;;;;;;;;;;;17.00;99.90;;;16.14;100.00;96207.81;10537539;28;1726;-73
2022/10/29 19:01:29;;;;;;;;;;;16.90;99.90;;;16.13;100.00;96210.81;10533279;28;1734;-72
2022/10/29 19:06:31;;;;;;;;;;;16.90;99.90;;;15.99;100.00;96210.00;10536951;28;1829;-72
2022/10/29 19:11:37;;;;;;;;;;;16.90;99.90;;;15.85;100.00;96204.53;10540351;28;1975;-72
2022/10/29 19:16:39;;;;;;;;;;;16.70;99.90;;;15.84;100.00;96205.59;10537781;28;1628;-72
2022/10/29 19:21:42;;;;;;;;;;;16.70;99.90;;;15.79;100.00;96211.13;10538147;28;1145;-73
2022/10/29 19:26:44;;;;;;;;;;;16.70;99.90;;;15.74;100.00;96203.09;10534753;28;1581;-74
2022/10/29 19:31:47;;;;;;;;;;;16.60;99.90;;;15.52;100.00;96201.75;10536058;28;1973;-72
2022/10/29 19:36:50;;;;;;;;;;;16.50;99.90;;;15.45;100.00;96201.31;10531618;28;1552;-74
2022/10/29 19:41:52;;;;;;;;;;;16.40;99.90;;;15.32;100.00;96191.22;10534883;28;1227;-73
2022/10/29 19:46:55;;;;;;;;;;;16.30;99.90;;;15.28;100.00;96201.03;10530089;28;1731;-72
2022/10/29 19:51:58;;;;;;;;;;;16.20;99.90;;;15.14;100.00;96195.53;10532110;28;1906;-73
2022/10/29 19:57:01;;;;;;;;;;;16.20;99.90;;;15.02;100.00;96201.41;10531921;28;1498;-75
2022/10/29 20:02:04;;;;;;;;;;;16.00;99.90;;;14.92;100.00;96198.81;10534697;28;1169;-74
2022/10/29 20:07:06;;;;;;;;;;;15.90;99.90;;;14.83;100.00;96197.84;10530356;28;1568;-73
2022/10/29 20:12:09;;;;;;;;;;;15.80;99.90;;;14.70;100.00;96201.28;10534272;28;1909;-73
2022/10/29 20:17:12;;;;;;;;;;;15.70;99.90;;;14.72;100.00;96201.78;10534306;28;1664;-72
2022/10/29 20:22:14;;;;;;;;;;;15.60;99.90;;;14.68;100.00;96200.72;10535369;28;1188;-73
2022/10/29 20:27:17;;;;;;;;;;;15.50;99.90;;;14.60;100.00;96197.56;10530081;28;1612;-70
2022/10/29 20:32:20;;;;;;;;;;;15.50;99.90;;;14.47;100.00;96203.69;10529427;28;1957;-72
2022/10/29 20:37:23;;;;;;;;;;;15.50;99.90;;;14.45;100.00;96200.44;10531024;28;1699;-72
2022/10/29 20:42:26;;;;;;;;;;;15.30;99.90;;;14.37;100.00;96192.94;10536199;28;921;-72
2022/10/29 20:47:29;;;;;;;;;;;15.30;99.90;;;14.29;100.00;96201.69;10524160;28;1608;-71
2022/10/29 20:52:32;;;;;;;;;;;15.30;99.90;;;14.18;100.00;96200.16;10533290;28;1967;-72
2022/10/29 20:57:34;;;;;;;;;;;15.20;99.90;;;14.22;100.00;96202.03;10529462;28;1897;-74
2022/10/29 21:02:37;;;;;;;;;;;15.10;99.90;;;14.19;100.00;96199.91;10535398;28;1178;-72
2022/10/29 21:07:40;;;;;;;;;;;15.20;99.90;;;14.05;100.00;96204.34;10535602;28;1632;-72
2022/10/29 21:12:43;;;;;;;;;;;15.10;99.90;;;14.02;100.00;96196.81;10541313;28;1979;-73
2022/10/29 21:17:46;;;;;;;;;;;15.00;99.90;;;13.87;100.00;96196.94;10540575;28;1734;-72
2022/10/29 21:22:48;;;;;;;;;;;14.90;99.90;;;13.73;100.00;96200.28;10539508;28;1665;-73
2022/10/29 21:27:51;;;;;;;;;;;14.80;99.90;;;13.66;100.00;96189.00;10545655;28;1453;-73
2022/10/29 21:32:54;;;;;;;;;;;14.70;99.90;;;13.63;100.00;96199.59;10541218;28;1975;-73
2022/10/29 21:37:57;;;;;;;;;;;14.60;99.90;;;13.63;100.00;96189.59;10537036;28;1636;-72
2022/10/29 21:43:00;;;;;;;;;;;14.60;99.90;;;13.59;100.00;96195.84;10539559;28;1039;-72
2022/10/29 21:48:03;;;;;;;;;;;14.50;99.90;;;13.49;100.00;96189.44;10532019;28;1666;-72
2022/10/29 21:53:06;;;;;;;;;;;14.50;99.90;;;13.47;100.00;96190.78;10539278;28;1973;-75
2022/10/29 21:58:09;;;;;;;;;;;14.40;99.90;;;13.35;100.00;96193.03;10526186;28;1671;-74
2022/10/29 22:03:11;;;;;;;;;;;14.30;99.90;;;13.31;100.00;96187.41;10538819;28;1188;-77
2022/10/29 22:08:14;;;;;;;;;;;14.30;99.90;;;13.17;100.00;96195.28;10538262;28;1652;-72
2022/10/29 22:13:17;;;;;;;;;;;14.20;99.90;;;13.17;100.00;96189.91;10539353;28;1979;-72
2022/10/29 22:18:20;;;;;;;;;;;14.20;99.90;;;13.06;100.00;96195.63;10537036;28;1628;-73
2022/10/29 22:23:23;;;;;;;;;;;14.10;99.90;;;13.00;100.00;96194.84;10537488;28;1793;-74
2022/10/29 22:28:27;;;;;;;;;;;14.00;99.90;;;12.95;100.00;96200.25;10537685;28;1509;-72
2022/10/29 22:33:30;;;;;;;;;;;14.00;99.90;;;12.82;100.00;96190.88;10537818;28;1898;-73
2022/10/29 22:38:33;;;;;;;;;;;13.90;99.90;;;12.74;100.00;96187.97;10534990;28;1683;-73
2022/10/29 22:43:36;;;;;;;;;;;13.80;99.90;;;12.60;100.00;96187.75;10537720;28;1133;-72
2022/10/29 22:48:38;;;;;;;;;;;13.80;99.90;;;12.55;100.00;96179.69;10531740;28;1718;-72
2022/10/29 22:53:41;;;;;;;;;;;13.70;99.90;;;12.51;100.00;96173.22;10531496;28;1914;-71
2022/10/29 22:58:43;;;;;;;;;;;13.60;99.90;;;12.48;100.00;96176.47;10529995;28;2015;-71
2022/10/29 23:03:51;;;;;;;;;;;13.50;99.90;;;12.36;100.00;96176.78;10536011;28;1117;-73